Erfurt Airport EDDE

Flugplatz Daten

Name: Erfurt Airport

Ident: EDDE

Lat: 50,97980118

Long: 10,95810032

Platzhöhe: 1036 ft

IataCode: ERF

City: Erfurt

Homepage: http://www.airport-erfurt.de/

Metar

2021/10/20 13:20
EDDE 201320Z 23010KT 9999 FEW033 SCT046 16/11 Q1008 TEMPO 23015G25KT

Taf

2021/10/20 12:27
TAF TAF EDDE 201100Z 2012/2112 21015KT 9999 FEW035
TEMPO 2012/2016 22020G30KT
BECMG 2100/2104 23025G35KT
TEMPO 2107/2112 23030G50KT
Gewünschte Webcam nicht vorhanden? Dann fügen Sie eine hinzu. Sie wird dann so schnell wie möglich freigeschaltet
Url: Title: